BRU732 UMMS-UKKK
Flight info
| Callsign | BRU732 |
|---|---|
| Flight time | 0h 55m |
| Altitude | 34000 |
| Route | ARZIM2F ARZIM Z736 GOWDA/K0776F330 P987 BORAT L33 NANIR |
| Aircraft | B738/M-SDE2E3FGHIRWXY/LB1 |
Departure
| Time | 2026-05-05 20:38 |
|---|---|
| Airport | Minsk National Airport (UMMS) |
Arrival
| Time | 2026-05-05 21:33 |
|---|---|
| Airport | Ihor Sikorsky Kyiv International Airport (Zhuliany) (UKKK) |
| Time | Latitude | Longitude | Altitude | Speed | Heading |
|---|---|---|---|---|---|
| 2026-05-05 20:10 | 53.88831 | 28.03724 | 633 ft | 0 kts | 318° |
| 2026-05-05 20:29 | 53.88831 | 28.03723 | 633 ft | 0 kts | 318° |
| 2026-05-05 20:29 | 53.88848 | 28.03697 | 637 ft | 7 kts | 311° |
| 2026-05-05 20:30 | 53.88834 | 28.03585 | 635 ft | 14 kts | 233° |
| 2026-05-05 20:30 | 53.88753 | 28.03424 | 633 ft | 22 kts | 228° |
| 2026-05-05 20:30 | 53.88647 | 28.03305 | 642 ft | 16 kts | 155° |
| 2026-05-05 20:30 | 53.88561 | 28.03424 | 633 ft | 17 kts | 139° |
| 2026-05-05 20:31 | 53.88553 | 28.03610 | 633 ft | 21 kts | 51° |
| 2026-05-05 20:31 | 53.88661 | 28.03818 | 633 ft | 25 kts | 49° |
| 2026-05-05 20:31 | 53.88773 | 28.04035 | 633 ft | 24 kts | 49° |
| 2026-05-05 20:31 | 53.88877 | 28.04239 | 637 ft | 23 kts | 49° |
| 2026-05-05 20:32 | 53.88979 | 28.04436 | 633 ft | 22 kts | 49° |
| 2026-05-05 20:32 | 53.89078 | 28.04630 | 633 ft | 22 kts | 48° |
| 2026-05-05 20:32 | 53.89176 | 28.04825 | 637 ft | 22 kts | 58° |
| 2026-05-05 20:32 | 53.89109 | 28.05021 | 633 ft | 21 kts | 138° |
| 2026-05-05 20:33 | 53.88993 | 28.05194 | 633 ft | 23 kts | 139° |
| 2026-05-05 20:33 | 53.88868 | 28.05380 | 641 ft | 25 kts | 139° |
| 2026-05-05 20:33 | 53.88733 | 28.05580 | 633 ft | 26 kts | 139° |
| 2026-05-05 20:33 | 53.88591 | 28.05792 | 633 ft | 28 kts | 139° |
| 2026-05-05 20:34 | 53.88443 | 28.06012 | 633 ft | 29 kts | 139° |
| 2026-05-05 20:34 | 53.88295 | 28.06233 | 633 ft | 28 kts | 139° |
| 2026-05-05 20:34 | 53.88156 | 28.06440 | 633 ft | 26 kts | 139° |
| 2026-05-05 20:34 | 53.88025 | 28.06634 | 633 ft | 24 kts | 139° |
| 2026-05-05 20:35 | 53.87945 | 28.06814 | 638 ft | 10 kts | 80° |
| 2026-05-05 20:35 | 53.87985 | 28.06914 | 634 ft | 11 kts | 47° |
| 2026-05-05 20:35 | 53.88048 | 28.06991 | 635 ft | 10 kts | 5° |
| 2026-05-05 20:35 | 53.88083 | 28.06946 | 633 ft | 6 kts | 309° |
| 2026-05-05 20:36 | 53.88094 | 28.06929 | 633 ft | 0 kts | 316° |
| 2026-05-05 20:37 | 53.88216 | 28.06740 | 633 ft | 60 kts | 323° |
| 2026-05-05 20:37 | 53.88762 | 28.05939 | 632 ft | 144 kts | 319° |
| 2026-05-05 20:38 | 53.89663 | 28.04586 | 978 ft | 190 kts | 318° |
| 2026-05-05 20:38 | 53.90669 | 28.03026 | 1905 ft | 204 kts | 317° |
| 2026-05-05 20:38 | 53.91718 | 28.01450 | 2699 ft | 204 kts | 318° |
| 2026-05-05 20:38 | 53.92791 | 27.99866 | 3800 ft | 205 kts | 316° |
| 2026-05-05 20:39 | 53.93891 | 27.98244 | 4487 ft | 220 kts | 316° |
| 2026-05-05 20:39 | 53.95161 | 27.96671 | 5319 ft | 231 kts | 327° |
| 2026-05-05 20:39 | 53.96776 | 27.96030 | 6056 ft | 250 kts | 1° |
| 2026-05-05 20:39 | 53.98402 | 27.96614 | 7028 ft | 225 kts | 11° |
| 2026-05-05 20:40 | 53.99904 | 27.97407 | 7255 ft | 232 kts | 12° |
| 2026-05-05 20:40 | 54.01484 | 27.98256 | 7770 ft | 241 kts | 12° |
| 2026-05-05 20:40 | 54.03013 | 27.99064 | 7833 ft | 243 kts | 12° |
| 2026-05-05 20:40 | 54.04697 | 28.00045 | 7858 ft | 249 kts | 25° |
| 2026-05-05 20:41 | 54.06060 | 28.02154 | 7887 ft | 282 kts | 58° |
| 2026-05-05 20:41 | 54.06610 | 28.05347 | 7876 ft | 284 kts | 90° |
| 2026-05-05 20:41 | 54.06557 | 28.08693 | 7871 ft | 287 kts | 96° |
| 2026-05-05 20:41 | 54.06441 | 28.12072 | 7868 ft | 285 kts | 95° |
| 2026-05-05 20:42 | 54.06369 | 28.15454 | 7854 ft | 285 kts | 94° |
| 2026-05-05 20:42 | 54.06331 | 28.18815 | 7858 ft | 283 kts | 93° |
| 2026-05-05 20:42 | 54.06311 | 28.22163 | 7854 ft | 282 kts | 91° |
| 2026-05-05 20:42 | 54.06448 | 28.25548 | 7940 ft | 293 kts | 85° |
| 2026-05-05 20:43 | 54.06683 | 28.29160 | 8169 ft | 322 kts | 85° |
| 2026-05-05 20:43 | 54.06934 | 28.33040 | 8582 ft | 342 kts | 86° |
| 2026-05-05 20:43 | 54.06765 | 28.37086 | 9368 ft | 342 kts | 110° |
| 2026-05-05 20:43 | 54.05686 | 28.40629 | 10259 ft | 336 kts | 133° |
| 2026-05-05 20:44 | 54.03992 | 28.43299 | 11045 ft | 333 kts | 147° |
| 2026-05-05 20:44 | 54.02111 | 28.45673 | 11815 ft | 339 kts | 149° |
| 2026-05-05 20:44 | 54.00172 | 28.48033 | 12605 ft | 343 kts | 150° |
| 2026-05-05 20:44 | 53.98074 | 28.49914 | 13377 ft | 341 kts | 165° |
| 2026-05-05 20:45 | 53.93469 | 28.52081 | 14865 ft | 345 kts | 169° |
| 2026-05-05 20:45 | 53.91135 | 28.53101 | 15626 ft | 348 kts | 169° |
| 2026-05-05 20:45 | 53.88810 | 28.54121 | 16365 ft | 351 kts | 169° |
| 2026-05-05 20:46 | 53.86433 | 28.55174 | 17094 ft | 354 kts | 169° |
| 2026-05-05 20:46 | 53.84039 | 28.56244 | 17833 ft | 357 kts | 169° |
| 2026-05-05 20:46 | 53.81627 | 28.57330 | 18497 ft | 361 kts | 168° |
| 2026-05-05 20:46 | 53.79185 | 28.58434 | 19099 ft | 364 kts | 168° |
| 2026-05-05 20:47 | 53.76712 | 28.59554 | 19702 ft | 368 kts | 168° |
| 2026-05-05 20:47 | 53.74253 | 28.60670 | 20290 ft | 372 kts | 168° |
| 2026-05-05 20:47 | 53.71737 | 28.61811 | 20860 ft | 376 kts | 168° |
| 2026-05-05 20:47 | 53.69197 | 28.62963 | 21438 ft | 380 kts | 168° |
| 2026-05-05 20:48 | 53.66628 | 28.64127 | 22006 ft | 384 kts | 168° |
| 2026-05-05 20:48 | 53.64034 | 28.65301 | 22560 ft | 388 kts | 168° |
| 2026-05-05 20:48 | 53.61416 | 28.66484 | 23125 ft | 391 kts | 168° |
| 2026-05-05 20:48 | 53.58773 | 28.67676 | 23608 ft | 396 kts | 168° |
| 2026-05-05 20:49 | 53.56063 | 28.68896 | 23696 ft | 410 kts | 168° |
| 2026-05-05 20:49 | 53.53261 | 28.70153 | 23780 ft | 423 kts | 168° |
| 2026-05-05 20:49 | 53.50376 | 28.71446 | 23862 ft | 435 kts | 168° |
| 2026-05-05 20:49 | 53.47404 | 28.72779 | 23923 ft | 447 kts | 168° |
| 2026-05-05 20:50 | 53.44407 | 28.74123 | 23987 ft | 457 kts | 168° |
| 2026-05-05 20:50 | 53.42308 | 28.75063 | 24033 ft | 463 kts | 168° |
| 2026-05-05 20:50 | 53.38227 | 28.76896 | 25063 ft | 450 kts | 167° |
| 2026-05-05 20:50 | 53.35248 | 28.78235 | 26044 ft | 436 kts | 168° |
| 2026-05-05 20:51 | 53.33319 | 28.79100 | 26714 ft | 427 kts | 168° |
| 2026-05-05 20:51 | 53.29561 | 28.80779 | 27805 ft | 419 kts | 168° |
| 2026-05-05 20:51 | 53.27635 | 28.81634 | 27889 ft | 425 kts | 168° |
| 2026-05-05 20:51 | 53.24733 | 28.82915 | 27984 ft | 436 kts | 168° |
| 2026-05-05 20:52 | 53.18772 | 28.85542 | 28239 ft | 454 kts | 168° |
| 2026-05-05 20:52 | 53.15752 | 28.86879 | 29234 ft | 441 kts | 168° |
| 2026-05-05 20:52 | 53.12832 | 28.88175 | 30294 ft | 427 kts | 168° |
| 2026-05-05 20:53 | 53.10016 | 28.89424 | 31295 ft | 412 kts | 168° |
| 2026-05-05 20:53 | 53.07244 | 28.90647 | 31711 ft | 413 kts | 168° |
| 2026-05-05 20:53 | 53.04446 | 28.91874 | 31879 ft | 419 kts | 168° |
| 2026-05-05 20:53 | 53.01597 | 28.93118 | 31881 ft | 427 kts | 168° |
| 2026-05-05 20:54 | 52.95751 | 28.95671 | 31880 ft | 441 kts | 168° |
| 2026-05-05 20:54 | 52.89764 | 28.98284 | 31879 ft | 453 kts | 167° |
| 2026-05-05 20:55 | 52.83587 | 29.00976 | 31879 ft | 464 kts | 167° |
| 2026-05-05 20:55 | 52.77275 | 29.03720 | 31872 ft | 472 kts | 167° |
| 2026-05-05 20:56 | 52.70874 | 29.06493 | 31874 ft | 477 kts | 167° |
| 2026-05-05 20:56 | 52.64476 | 29.09257 | 31859 ft | 477 kts | 167° |
| 2026-05-05 20:57 | 52.58055 | 29.12021 | 31863 ft | 476 kts | 167° |
| 2026-05-05 20:57 | 52.51634 | 29.14777 | 31861 ft | 476 kts | 167° |
| 2026-05-05 20:58 | 52.45219 | 29.17521 | 31861 ft | 476 kts | 167° |
| 2026-05-05 20:58 | 52.38799 | 29.20259 | 31863 ft | 476 kts | 167° |
| 2026-05-05 20:59 | 52.32376 | 29.22989 | 31874 ft | 477 kts | 167° |
| 2026-05-05 20:59 | 52.25984 | 29.25699 | 31877 ft | 477 kts | 167° |
| 2026-05-05 21:00 | 52.19547 | 29.28420 | 31882 ft | 477 kts | 167° |
| 2026-05-05 21:00 | 52.13182 | 29.31105 | 31864 ft | 461 kts | 167° |
| 2026-05-05 21:01 | 52.07046 | 29.33684 | 31876 ft | 453 kts | 167° |
| 2026-05-05 21:01 | 52.00968 | 29.36230 | 31871 ft | 446 kts | 167° |
| 2026-05-05 21:02 | 51.95016 | 29.38716 | 31883 ft | 448 kts | 167° |
| 2026-05-05 21:02 | 51.88878 | 29.41271 | 31890 ft | 460 kts | 167° |
| 2026-05-05 21:03 | 51.82603 | 29.43877 | 31207 ft | 477 kts | 166° |
| 2026-05-05 21:03 | 51.79376 | 29.45216 | 30488 ft | 471 kts | 166° |
| 2026-05-05 21:03 | 51.76228 | 29.46520 | 29555 ft | 472 kts | 166° |
| 2026-05-05 21:04 | 51.73040 | 29.47839 | 28556 ft | 472 kts | 166° |
| 2026-05-05 21:04 | 51.69861 | 29.49152 | 27639 ft | 471 kts | 166° |
| 2026-05-05 21:04 | 51.66682 | 29.50463 | 26658 ft | 471 kts | 166° |
| 2026-05-05 21:04 | 51.63508 | 29.51770 | 25684 ft | 472 kts | 167° |
| 2026-05-05 21:05 | 51.60346 | 29.53070 | 24990 ft | 466 kts | 167° |
| 2026-05-05 21:05 | 51.57213 | 29.54357 | 24283 ft | 461 kts | 167° |
| 2026-05-05 21:05 | 51.54120 | 29.55625 | 23604 ft | 456 kts | 167° |
| 2026-05-05 21:05 | 51.51090 | 29.56866 | 22812 ft | 452 kts | 167° |
| 2026-05-05 21:06 | 51.48043 | 29.58111 | 21933 ft | 448 kts | 167° |
| 2026-05-05 21:06 | 51.45077 | 29.59475 | 20818 ft | 440 kts | 162° |
| 2026-05-05 21:06 | 51.42214 | 29.61161 | 19566 ft | 437 kts | 160° |
| 2026-05-05 21:06 | 51.39400 | 29.62932 | 18419 ft | 433 kts | 160° |
| 2026-05-05 21:07 | 51.36614 | 29.64714 | 17219 ft | 427 kts | 160° |
| 2026-05-05 21:07 | 51.33906 | 29.66438 | 16124 ft | 420 kts | 160° |
| 2026-05-05 21:07 | 51.31188 | 29.68147 | 15118 ft | 420 kts | 160° |
| 2026-05-05 21:07 | 51.28466 | 29.69839 | 14450 ft | 416 kts | 160° |
| 2026-05-05 21:08 | 51.25817 | 29.71475 | 14196 ft | 393 kts | 160° |
| 2026-05-05 21:08 | 51.23339 | 29.73000 | 14038 ft | 368 kts | 161° |
| 2026-05-05 21:08 | 51.21016 | 29.74425 | 13897 ft | 346 kts | 161° |
| 2026-05-05 21:08 | 51.18856 | 29.75746 | 13783 ft | 327 kts | 161° |
| 2026-05-05 21:09 | 51.16782 | 29.77011 | 13669 ft | 310 kts | 161° |
| 2026-05-05 21:09 | 51.14794 | 29.78221 | 13129 ft | 307 kts | 161° |
| 2026-05-05 21:09 | 51.12743 | 29.79463 | 12043 ft | 323 kts | 161° |
| 2026-05-05 21:09 | 51.10604 | 29.80757 | 11084 ft | 333 kts | 161° |
| 2026-05-05 21:10 | 51.08438 | 29.82070 | 10502 ft | 329 kts | 161° |
| 2026-05-05 21:10 | 51.06371 | 29.83327 | 10421 ft | 309 kts | 161° |
| 2026-05-05 21:10 | 51.04417 | 29.84515 | 10307 ft | 292 kts | 161° |
| 2026-05-05 21:10 | 51.02588 | 29.85626 | 10193 ft | 278 kts | 161° |
| 2026-05-05 21:11 | 51.00823 | 29.86696 | 10078 ft | 265 kts | 161° |
| 2026-05-05 21:11 | 50.99140 | 29.87714 | 9918 ft | 255 kts | 161° |
| 2026-05-05 21:11 | 50.97487 | 29.88708 | 9533 ft | 253 kts | 161° |
| 2026-05-05 21:11 | 50.95830 | 29.89706 | 9235 ft | 255 kts | 161° |
| 2026-05-05 21:12 | 50.94109 | 29.90741 | 8420 ft | 277 kts | 161° |
| 2026-05-05 21:12 | 50.92267 | 29.91849 | 7983 ft | 283 kts | 161° |
| 2026-05-05 21:12 | 50.90470 | 29.92934 | 8059 ft | 270 kts | 161° |
| 2026-05-05 21:12 | 50.88757 | 29.93969 | 8072 ft | 257 kts | 161° |
| 2026-05-05 21:13 | 50.87126 | 29.94953 | 8116 ft | 246 kts | 161° |
| 2026-05-05 21:13 | 50.85486 | 29.95936 | 7803 ft | 266 kts | 161° |
| 2026-05-05 21:13 | 50.83664 | 29.97022 | 7495 ft | 292 kts | 161° |
| 2026-05-05 21:13 | 50.81770 | 29.98156 | 7175 ft | 295 kts | 161° |
| 2026-05-05 21:14 | 50.79851 | 29.99308 | 6846 ft | 295 kts | 161° |
| 2026-05-05 21:14 | 50.77930 | 30.00460 | 6518 ft | 294 kts | 161° |
| 2026-05-05 21:14 | 50.76031 | 30.01597 | 6181 ft | 287 kts | 161° |
| 2026-05-05 21:14 | 50.74166 | 30.02714 | 5878 ft | 289 kts | 161° |
| 2026-05-05 21:15 | 50.72213 | 30.03878 | 5584 ft | 325 kts | 161° |
| 2026-05-05 21:15 | 50.69940 | 30.05223 | 5195 ft | 365 kts | 161° |
| 2026-05-05 21:15 | 50.67566 | 30.06643 | 4990 ft | 357 kts | 160° |
| 2026-05-05 21:15 | 50.65312 | 30.08012 | 4836 ft | 335 kts | 161° |
| 2026-05-05 21:16 | 50.63199 | 30.09271 | 4674 ft | 314 kts | 161° |
| 2026-05-05 21:16 | 50.61232 | 30.10438 | 4527 ft | 296 kts | 161° |
| 2026-05-05 21:16 | 50.59407 | 30.11523 | 4456 ft | 279 kts | 161° |
| 2026-05-05 21:16 | 50.57622 | 30.12591 | 4157 ft | 272 kts | 161° |
| 2026-05-05 21:17 | 50.55839 | 30.13635 | 3577 ft | 276 kts | 161° |
| 2026-05-05 21:17 | 50.54032 | 30.14705 | 2983 ft | 279 kts | 161° |
| 2026-05-05 21:17 | 50.52213 | 30.15764 | 2623 ft | 276 kts | 160° |
| 2026-05-05 21:17 | 50.50460 | 30.16800 | 2455 ft | 261 kts | 160° |
| 2026-05-05 21:18 | 50.48801 | 30.17788 | 2328 ft | 246 kts | 160° |
| 2026-05-05 21:18 | 50.47245 | 30.18662 | 2335 ft | 231 kts | 168° |
| 2026-05-05 21:18 | 50.45704 | 30.18941 | 2366 ft | 216 kts | 178° |
| 2026-05-05 21:18 | 50.44225 | 30.19068 | 2395 ft | 208 kts | 178° |
| 2026-05-05 21:19 | 50.42812 | 30.19194 | 2311 ft | 201 kts | 178° |
| 2026-05-05 21:19 | 50.41441 | 30.19318 | 2332 ft | 196 kts | 179° |
| 2026-05-05 21:19 | 50.40185 | 30.19943 | 2273 ft | 188 kts | 138° |
| 2026-05-05 21:19 | 50.39605 | 30.21760 | 2319 ft | 195 kts | 100° |
| 2026-05-05 21:20 | 50.39462 | 30.23866 | 2354 ft | 193 kts | 94° |
| 2026-05-05 21:20 | 50.39407 | 30.25908 | 2276 ft | 178 kts | 91° |
| 2026-05-05 21:20 | 50.39444 | 30.27749 | 2273 ft | 163 kts | 88° |
| 2026-05-05 21:20 | 50.39515 | 30.29521 | 2308 ft | 166 kts | 88° |
| 2026-05-05 21:21 | 50.39590 | 30.31347 | 2160 ft | 166 kts | 88° |
| 2026-05-05 21:21 | 50.39668 | 30.33154 | 1886 ft | 165 kts | 88° |
| 2026-05-05 21:21 | 50.39746 | 30.34925 | 1627 ft | 161 kts | 91° |
| 2026-05-05 21:21 | 50.39814 | 30.36638 | 1467 ft | 159 kts | 90° |
| 2026-05-05 21:22 | 50.39888 | 30.38368 | 1256 ft | 158 kts | 89° |
| 2026-05-05 21:22 | 50.39959 | 30.40055 | 1039 ft | 151 kts | 89° |
| 2026-05-05 21:22 | 50.40031 | 30.41697 | 833 ft | 150 kts | 89° |
| 2026-05-05 21:22 | 50.40109 | 30.43317 | 945 ft | 146 kts | 87° |
| 2026-05-05 21:23 | 50.40200 | 30.44969 | 1525 ft | 163 kts | 90° |
| 2026-05-05 21:23 | 50.40287 | 30.46805 | 1778 ft | 175 kts | 87° |
| 2026-05-05 21:23 | 50.40459 | 30.48830 | 1988 ft | 198 kts | 85° |
| 2026-05-05 21:23 | 50.40601 | 30.50940 | 2298 ft | 200 kts | 87° |
| 2026-05-05 21:24 | 50.40716 | 30.53130 | 2339 ft | 204 kts | 88° |
| 2026-05-05 21:24 | 50.40834 | 30.55372 | 2314 ft | 207 kts | 87° |
| 2026-05-05 21:24 | 50.40948 | 30.57602 | 2382 ft | 201 kts | 87° |
| 2026-05-05 21:24 | 50.41058 | 30.59753 | 2675 ft | 199 kts | 87° |
| 2026-05-05 21:25 | 50.41105 | 30.61951 | 2902 ft | 215 kts | 102° |
| 2026-05-05 21:25 | 50.40343 | 30.63839 | 2898 ft | 202 kts | 150° |
| 2026-05-05 21:25 | 50.39028 | 30.64294 | 2929 ft | 199 kts | 195° |
| 2026-05-05 21:25 | 50.37900 | 30.63145 | 2949 ft | 196 kts | 239° |
| 2026-05-05 21:26 | 50.37564 | 30.61062 | 2972 ft | 205 kts | 267° |
| 2026-05-05 21:26 | 50.37523 | 30.58774 | 2955 ft | 213 kts | 267° |
| 2026-05-05 21:26 | 50.37487 | 30.56474 | 2928 ft | 207 kts | 268° |
| 2026-05-05 21:26 | 50.37460 | 30.54240 | 2921 ft | 205 kts | 268° |
| 2026-05-05 21:27 | 50.37426 | 30.51984 | 2886 ft | 210 kts | 268° |
| 2026-05-05 21:27 | 50.37388 | 30.49701 | 2882 ft | 208 kts | 267° |
| 2026-05-05 21:27 | 50.37329 | 30.47412 | 2928 ft | 213 kts | 267° |
| 2026-05-05 21:27 | 50.37282 | 30.45058 | 2923 ft | 218 kts | 267° |
| 2026-05-05 21:28 | 50.37237 | 30.42673 | 2928 ft | 220 kts | 268° |
| 2026-05-05 21:28 | 50.37188 | 30.40276 | 2920 ft | 219 kts | 268° |
| 2026-05-05 21:28 | 50.37139 | 30.37911 | 2904 ft | 216 kts | 268° |
| 2026-05-05 21:28 | 50.37087 | 30.35585 | 2875 ft | 213 kts | 267° |
| 2026-05-05 21:29 | 50.37034 | 30.33268 | 2664 ft | 214 kts | 267° |
| 2026-05-05 21:29 | 50.36789 | 30.31001 | 2488 ft | 210 kts | 248° |
| 2026-05-05 21:29 | 50.36231 | 30.28883 | 2403 ft | 217 kts | 248° |
| 2026-05-05 21:29 | 50.35669 | 30.26675 | 2359 ft | 217 kts | 249° |
| 2026-05-05 21:30 | 50.35535 | 30.24403 | 2325 ft | 209 kts | 288° |
| 2026-05-05 21:30 | 50.36363 | 30.22569 | 2312 ft | 209 kts | 319° |
| 2026-05-05 21:30 | 50.37639 | 30.21652 | 2339 ft | 200 kts | 351° |
| 2026-05-05 21:30 | 50.38984 | 30.22021 | 2314 ft | 197 kts | 28° |
| 2026-05-05 21:31 | 50.39960 | 30.23526 | 2306 ft | 206 kts | 66° |
| 2026-05-05 21:31 | 50.40093 | 30.25711 | 2369 ft | 206 kts | 107° |
| 2026-05-05 21:31 | 50.39475 | 30.27739 | 2367 ft | 208 kts | 116° |
| 2026-05-05 21:31 | 50.39356 | 30.29969 | 2302 ft | 208 kts | 76° |
| 2026-05-05 21:32 | 50.39668 | 30.32218 | 1985 ft | 208 kts | 89° |
| 2026-05-05 21:32 | 50.39690 | 30.34455 | 1709 ft | 205 kts | 88° |
| 2026-05-05 21:32 | 50.39834 | 30.36623 | 1469 ft | 196 kts | 90° |
| 2026-05-05 21:32 | 50.39901 | 30.38721 | 1220 ft | 188 kts | 88° |
| 2026-05-05 21:33 | 50.39989 | 30.40726 | 977 ft | 180 kts | 89° |
| 2026-05-05 21:33 | 50.40071 | 30.42631 | 734 ft | 170 kts | 88° |
| 2026-05-05 21:33 | 50.40146 | 30.44380 | 580 ft | 151 kts | 88° |
| 2026-05-05 21:33 | 50.40185 | 30.45409 | 583 ft | 47 kts | 84° |
| 2026-05-05 21:34 | 50.40213 | 30.45889 | 590 ft | 42 kts | 85° |
| 2026-05-05 21:34 | 50.40260 | 30.46177 | 592 ft | 15 kts | 27° |
| 2026-05-05 21:34 | 50.40359 | 30.46190 | 592 ft | 14 kts | 358° |
| 2026-05-05 21:34 | 50.40436 | 30.46167 | 592 ft | 6 kts | 319° |
| 2026-05-05 21:35 | 50.40455 | 30.46077 | 591 ft | 13 kts | 276° |
| 2026-05-05 21:35 | 50.40462 | 30.45914 | 589 ft | 16 kts | 278° |
| 2026-05-05 21:35 | 50.40479 | 30.45742 | 588 ft | 16 kts | 277° |
| 2026-05-05 21:35 | 50.40499 | 30.45567 | 587 ft | 17 kts | 299° |
| 2026-05-05 21:36 | 50.40575 | 30.45428 | 585 ft | 17 kts | 311° |
| 2026-05-05 21:36 | 50.40654 | 30.45282 | 584 ft | 18 kts | 309° |
| 2026-05-05 21:36 | 50.40743 | 30.45122 | 583 ft | 21 kts | 312° |
| 2026-05-05 21:36 | 50.40853 | 30.44928 | 581 ft | 26 kts | 310° |
| 2026-05-05 21:37 | 50.40982 | 30.44695 | 580 ft | 24 kts | 310° |
| 2026-05-05 21:37 | 50.41039 | 30.44460 | 578 ft | 23 kts | 291° |
| 2026-05-05 21:37 | 50.41092 | 30.44268 | 576 ft | 13 kts | 293° |
| 2026-05-05 21:37 | 50.41074 | 30.44197 | 577 ft | 7 kts | 205° |
| 2026-05-05 21:38 | 50.41065 | 30.44190 | 575 ft | 0 kts | 204° |